sensor_id;sensor_type;location;lat;lon;timestamp;P1;durP1;ratioP1;P2;durP2;ratioP2
49392;SDS011;35268;42.642;23.308;2023-07-13T00:02:18;5.75;;;3.30;;
49392;SDS011;35268;42.642;23.308;2023-07-13T00:04:46;9.13;;;3.35;;
49392;SDS011;35268;42.642;23.308;2023-07-13T00:07:12;8.82;;;3.42;;
49392;SDS011;35268;42.642;23.308;2023-07-13T00:09:39;9.18;;;3.65;;
49392;SDS011;35268;42.642;23.308;2023-07-13T00:12:05;12.07;;;3.05;;
49392;SDS011;35268;42.642;23.308;2023-07-13T00:14:46;8.90;;;3.30;;
49392;SDS011;35268;42.642;23.308;2023-07-13T00:17:11;7.78;;;3.65;;
49392;SDS011;35268;42.642;23.308;2023-07-13T00:19:38;12.40;;;3.80;;
49392;SDS011;35268;42.642;23.308;2023-07-13T00:22:03;16.20;;;3.45;;
49392;SDS011;35268;42.642;23.308;2023-07-13T00:24:29;14.45;;;3.80;;
49392;SDS011;35268;42.642;23.308;2023-07-13T00:26:54;10.15;;;3.53;;
49392;SDS011;35268;42.642;23.308;2023-07-13T00:32:40;9.30;;;3.90;;
49392;SDS011;35268;42.642;23.308;2023-07-13T00:35:06;7.35;;;3.45;;
49392;SDS011;35268;42.642;23.308;2023-07-13T00:37:32;12.57;;;4.57;;
49392;SDS011;35268;42.642;23.308;2023-07-13T00:39:58;6.53;;;3.33;;
49392;SDS011;35268;42.642;23.308;2023-07-13T00:42:31;7.95;;;3.40;;
49392;SDS011;35268;42.642;23.308;2023-07-13T00:47:45;11.38;;;4.00;;
49392;SDS011;35268;42.642;23.308;2023-07-13T00:50:12;8.05;;;3.00;;
49392;SDS011;35268;42.642;23.308;2023-07-13T00:52:41;9.20;;;3.45;;
49392;SDS011;35268;42.642;23.308;2023-07-13T00:55:10;8.35;;;4.00;;
49392;SDS011;35268;42.642;23.308;2023-07-13T00:57:37;12.13;;;3.92;;
49392;SDS011;35268;42.642;23.308;2023-07-13T01:00:04;6.60;;;3.28;;
49392;SDS011;35268;42.642;23.308;2023-07-13T01:02:33;10.10;;;4.28;;
49392;SDS011;35268;42.642;23.308;2023-07-13T01:05:00;7.22;;;3.85;;
49392;SDS011;35268;42.642;23.308;2023-07-13T01:07:26;11.00;;;3.90;;
49392;SDS011;35268;42.642;23.308;2023-07-13T01:09:52;8.60;;;3.90;;
49392;SDS011;35268;42.642;23.308;2023-07-13T01:12:18;15.05;;;4.40;;
49392;SDS011;35268;42.642;23.308;2023-07-13T01:14:43;14.48;;;3.97;;
49392;SDS011;35268;42.642;23.308;2023-07-13T01:17:09;8.32;;;3.90;;
49392;SDS011;35268;42.642;23.308;2023-07-13T01:19:43;8.40;;;3.47;;
49392;SDS011;35268;42.642;23.308;2023-07-13T01:22:12;10.82;;;3.72;;
49392;SDS011;35268;42.642;23.308;2023-07-13T01:24:40;11.00;;;3.95;;
49392;SDS011;35268;42.642;23.308;2023-07-13T01:27:08;5.20;;;3.10;;
49392;SDS011;35268;42.642;23.308;2023-07-13T01:29:35;6.45;;;3.55;;
49392;SDS011;35268;42.642;23.308;2023-07-13T01:32:07;11.98;;;3.65;;
49392;SDS011;35268;42.642;23.308;2023-07-13T01:34:34;8.85;;;3.65;;
49392;SDS011;35268;42.642;23.308;2023-07-13T01:37:00;9.10;;;3.60;;
49392;SDS011;35268;42.642;23.308;2023-07-13T01:39:26;9.50;;;3.60;;
49392;SDS011;35268;42.642;23.308;2023-07-13T01:41:51;6.22;;;3.42;;
49392;SDS011;35268;42.642;23.308;2023-07-13T01:44:16;11.32;;;3.85;;
49392;SDS011;35268;42.642;23.308;2023-07-13T01:46:42;8.73;;;3.42;;
49392;SDS011;35268;42.642;23.308;2023-07-13T01:49:07;9.25;;;4.05;;
49392;SDS011;35268;42.642;23.308;2023-07-13T01:51:33;6.20;;;3.22;;
49392;SDS011;35268;42.642;23.308;2023-07-13T01:53:58;7.03;;;3.97;;
49392;SDS011;35268;42.642;23.308;2023-07-13T01:56:24;10.25;;;3.53;;
49392;SDS011;35268;42.642;23.308;2023-07-13T01:58:49;6.88;;;3.30;;
49392;SDS011;35268;42.642;23.308;2023-07-13T02:01:14;11.82;;;3.63;;
49392;SDS011;35268;42.642;23.308;2023-07-13T02:03:40;7.43;;;3.85;;
49392;SDS011;35268;42.642;23.308;2023-07-13T02:06:05;10.13;;;4.15;;
49392;SDS011;35268;42.642;23.308;2023-07-13T02:08:32;4.95;;;3.00;;
49392;SDS011;35268;42.642;23.308;2023-07-13T02:10:58;9.02;;;3.45;;
49392;SDS011;35268;42.642;23.308;2023-07-13T02:13:23;8.43;;;3.63;;
49392;SDS011;35268;42.642;23.308;2023-07-13T02:15:52;13.23;;;3.90;;
49392;SDS011;35268;42.642;23.308;2023-07-13T02:18:17;7.32;;;3.60;;
49392;SDS011;35268;42.642;23.308;2023-07-13T02:20:43;11.38;;;3.95;;
49392;SDS011;35268;42.642;23.308;2023-07-13T02:23:08;17.55;;;4.93;;
49392;SDS011;35268;42.642;23.308;2023-07-13T02:25:34;9.20;;;3.83;;
49392;SDS011;35268;42.642;23.308;2023-07-13T02:27:59;11.48;;;4.30;;
49392;SDS011;35268;42.642;23.308;2023-07-13T02:30:26;8.48;;;3.92;;
49392;SDS011;35268;42.642;23.308;2023-07-13T02:32:54;7.85;;;3.90;;
49392;SDS011;35268;42.642;23.308;2023-07-13T02:35:23;8.65;;;3.85;;
49392;SDS011;35268;42.642;23.308;2023-07-13T02:37:48;7.38;;;4.03;;
49392;SDS011;35268;42.642;23.308;2023-07-13T02:40:14;8.10;;;4.00;;
49392;SDS011;35268;42.642;23.308;2023-07-13T02:42:39;10.43;;;3.88;;
49392;SDS011;35268;42.642;23.308;2023-07-13T02:45:06;11.65;;;3.97;;
49392;SDS011;35268;42.642;23.308;2023-07-13T02:47:32;10.13;;;4.40;;
49392;SDS011;35268;42.642;23.308;2023-07-13T02:49:58;12.85;;;4.93;;
49392;SDS011;35268;42.642;23.308;2023-07-13T02:52:24;7.65;;;3.72;;
49392;SDS011;35268;42.642;23.308;2023-07-13T02:54:49;8.45;;;4.75;;
49392;SDS011;35268;42.642;23.308;2023-07-13T02:57:15;9.75;;;3.88;;
49392;SDS011;35268;42.642;23.308;2023-07-13T02:59:40;15.57;;;4.68;;
49392;SDS011;35268;42.642;23.308;2023-07-13T03:02:06;7.93;;;4.38;;
49392;SDS011;35268;42.642;23.308;2023-07-13T03:04:31;7.95;;;4.25;;
49392;SDS011;35268;42.642;23.308;2023-07-13T03:06:57;14.23;;;4.63;;
49392;SDS011;35268;42.642;23.308;2023-07-13T03:09:23;9.30;;;4.45;;
49392;SDS011;35268;42.642;23.308;2023-07-13T03:11:51;17.40;;;4.60;;
49392;SDS011;35268;42.642;23.308;2023-07-13T03:14:18;14.02;;;4.75;;
49392;SDS011;35268;42.642;23.308;2023-07-13T03:16:43;15.32;;;4.03;;
49392;SDS011;35268;42.642;23.308;2023-07-13T03:19:09;6.80;;;3.60;;
49392;SDS011;35268;42.642;23.308;2023-07-13T03:21:34;7.72;;;4.07;;
49392;SDS011;35268;42.642;23.308;2023-07-13T03:23:59;9.15;;;5.05;;
49392;SDS011;35268;42.642;23.308;2023-07-13T03:26:25;9.63;;;4.88;;
49392;SDS011;35268;42.642;23.308;2023-07-13T03:28:50;9.10;;;4.57;;
49392;SDS011;35268;42.642;23.308;2023-07-13T03:31:20;10.40;;;4.90;;
49392;SDS011;35268;42.642;23.308;2023-07-13T03:33:47;10.20;;;4.70;;
49392;SDS011;35268;42.642;23.308;2023-07-13T03:36:14;9.13;;;4.72;;
49392;SDS011;35268;42.642;23.308;2023-07-13T03:38:45;15.05;;;5.20;;
49392;SDS011;35268;42.642;23.308;2023-07-13T03:41:15;12.35;;;5.35;;
49392;SDS011;35268;42.642;23.308;2023-07-13T03:43:41;10.02;;;5.38;;
49392;SDS011;35268;42.642;23.308;2023-07-13T03:46:07;10.90;;;5.68;;
49392;SDS011;35268;42.642;23.308;2023-07-13T03:48:33;12.30;;;5.93;;
49392;SDS011;35268;42.642;23.308;2023-07-13T03:50:59;10.18;;;5.13;;
49392;SDS011;35268;42.642;23.308;2023-07-13T03:53:24;11.15;;;5.00;;
49392;SDS011;35268;42.642;23.308;2023-07-13T03:55:49;21.35;;;5.10;;
49392;SDS011;35268;42.642;23.308;2023-07-13T04:01:04;14.00;;;5.75;;
49392;SDS011;35268;42.642;23.308;2023-07-13T04:03:31;25.35;;;5.47;;
49392;SDS011;35268;42.642;23.308;2023-07-13T04:06:01;13.25;;;5.82;;
49392;SDS011;35268;42.642;23.308;2023-07-13T04:08:29;13.52;;;6.22;;
49392;SDS011;35268;42.642;23.308;2023-07-13T04:10:56;12.20;;;5.60;;
49392;SDS011;35268;42.642;23.308;2023-07-13T04:13:22;11.25;;;5.88;;
49392;SDS011;35268;42.642;23.308;2023-07-13T04:15:48;13.15;;;7.35;;
49392;SDS011;35268;42.642;23.308;2023-07-13T04:18:14;10.20;;;6.20;;
49392;SDS011;35268;42.642;23.308;2023-07-13T04:20:40;15.18;;;6.28;;
49392;SDS011;35268;42.642;23.308;2023-07-13T04:23:05;14.93;;;6.60;;
49392;SDS011;35268;42.642;23.308;2023-07-13T04:25:31;14.02;;;5.72;;
49392;SDS011;35268;42.642;23.308;2023-07-13T04:27:56;13.50;;;6.40;;
49392;SDS011;35268;42.642;23.308;2023-07-13T04:30:22;13.40;;;6.18;;
49392;SDS011;35268;42.642;23.308;2023-07-13T04:32:48;11.38;;;5.93;;
49392;SDS011;35268;42.642;23.308;2023-07-13T04:35:14;14.70;;;6.72;;
49392;SDS011;35268;42.642;23.308;2023-07-13T04:37:40;18.52;;;7.05;;
49392;SDS011;35268;42.642;23.308;2023-07-13T04:40:05;20.20;;;6.57;;
49392;SDS011;35268;42.642;23.308;2023-07-13T04:42:31;15.45;;;6.93;;
49392;SDS011;35268;42.642;23.308;2023-07-13T04:44:59;15.75;;;7.25;;
49392;SDS011;35268;42.642;23.308;2023-07-13T04:47:24;25.85;;;7.47;;
49392;SDS011;35268;42.642;23.308;2023-07-13T04:49:50;15.13;;;6.88;;
49392;SDS011;35268;42.642;23.308;2023-07-13T04:52:15;11.80;;;7.13;;
49392;SDS011;35268;42.642;23.308;2023-07-13T04:54:41;18.27;;;6.57;;
49392;SDS011;35268;42.642;23.308;2023-07-13T04:57:07;22.98;;;8.55;;
49392;SDS011;35268;42.642;23.308;2023-07-13T04:59:33;21.13;;;8.55;;
49392;SDS011;35268;42.642;23.308;2023-07-13T05:01:58;18.10;;;9.02;;
49392;SDS011;35268;42.642;23.308;2023-07-13T05:04:24;20.60;;;7.47;;
49392;SDS011;35268;42.642;23.308;2023-07-13T05:06:49;19.85;;;7.82;;
49392;SDS011;35268;42.642;23.308;2023-07-13T05:09:15;20.55;;;7.28;;
49392;SDS011;35268;42.642;23.308;2023-07-13T05:11:41;18.02;;;8.15;;
49392;SDS011;35268;42.642;23.308;2023-07-13T05:14:06;16.55;;;7.20;;
49392;SDS011;35268;42.642;23.308;2023-07-13T05:16:32;22.80;;;7.03;;
49392;SDS011;35268;42.642;23.308;2023-07-13T05:18:57;23.58;;;8.80;;
49392;SDS011;35268;42.642;23.308;2023-07-13T05:21:23;22.15;;;8.52;;
49392;SDS011;35268;42.642;23.308;2023-07-13T05:23:49;19.70;;;8.02;;
49392;SDS011;35268;42.642;23.308;2023-07-13T05:26:15;16.27;;;8.63;;
49392;SDS011;35268;42.642;23.308;2023-07-13T05:28:41;25.08;;;8.20;;
49392;SDS011;35268;42.642;23.308;2023-07-13T05:31:07;15.95;;;8.60;;
49392;SDS011;35268;42.642;23.308;2023-07-13T05:33:33;22.30;;;8.60;;
49392;SDS011;35268;42.642;23.308;2023-07-13T05:35:59;20.85;;;8.50;;
49392;SDS011;35268;42.642;23.308;2023-07-13T05:38:25;19.48;;;8.15;;
49392;SDS011;35268;42.642;23.308;2023-07-13T05:40:53;25.05;;;8.38;;
49392;SDS011;35268;42.642;23.308;2023-07-13T05:43:20;22.08;;;7.80;;
49392;SDS011;35268;42.642;23.308;2023-07-13T05:45:46;17.80;;;6.93;;
49392;SDS011;35268;42.642;23.308;2023-07-13T05:48:11;15.18;;;6.85;;
49392;SDS011;35268;42.642;23.308;2023-07-13T05:50:36;15.27;;;7.03;;
49392;SDS011;35268;42.642;23.308;2023-07-13T05:53:02;19.17;;;6.88;;
49392;SDS011;35268;42.642;23.308;2023-07-13T05:55:27;12.15;;;6.85;;
49392;SDS011;35268;42.642;23.308;2023-07-13T05:57:53;21.98;;;7.90;;
49392;SDS011;35268;42.642;23.308;2023-07-13T06:00:19;16.52;;;7.55;;
49392;SDS011;35268;42.642;23.308;2023-07-13T06:02:44;14.93;;;7.55;;
49392;SDS011;35268;42.642;23.308;2023-07-13T06:05:10;22.45;;;8.45;;
49392;SDS011;35268;42.642;23.308;2023-07-13T06:07:35;20.55;;;8.23;;
49392;SDS011;35268;42.642;23.308;2023-07-13T06:10:01;19.95;;;8.32;;
49392;SDS011;35268;42.642;23.308;2023-07-13T06:12:27;20.88;;;7.05;;
49392;SDS011;35268;42.642;23.308;2023-07-13T06:14:52;19.98;;;7.00;;
49392;SDS011;35268;42.642;23.308;2023-07-13T06:17:18;20.38;;;5.93;;
49392;SDS011;35268;42.642;23.308;2023-07-13T06:19:43;23.30;;;7.15;;
49392;SDS011;35268;42.642;23.308;2023-07-13T06:22:09;19.23;;;8.10;;
49392;SDS011;35268;42.642;23.308;2023-07-13T06:24:34;19.98;;;7.70;;
49392;SDS011;35268;42.642;23.308;2023-07-13T06:27:00;26.45;;;8.90;;
49392;SDS011;35268;42.642;23.308;2023-07-13T06:29:25;27.58;;;7.32;;
49392;SDS011;35268;42.642;23.308;2023-07-13T06:31:51;18.17;;;6.90;;
49392;SDS011;35268;42.642;23.308;2023-07-13T06:34:16;16.40;;;6.82;;
49392;SDS011;35268;42.642;23.308;2023-07-13T06:36:41;22.63;;;8.20;;
49392;SDS011;35268;42.642;23.308;2023-07-13T06:39:07;19.15;;;7.00;;
49392;SDS011;35268;42.642;23.308;2023-07-13T06:41:32;16.38;;;7.47;;
49392;SDS011;35268;42.642;23.308;2023-07-13T06:43:59;20.25;;;7.93;;
49392;SDS011;35268;42.642;23.308;2023-07-13T06:46:24;18.25;;;7.88;;
49392;SDS011;35268;42.642;23.308;2023-07-13T06:48:50;24.25;;;7.90;;
49392;SDS011;35268;42.642;23.308;2023-07-13T06:51:15;21.85;;;7.60;;
49392;SDS011;35268;42.642;23.308;2023-07-13T06:53:41;20.50;;;6.40;;
49392;SDS011;35268;42.642;23.308;2023-07-13T06:56:08;22.25;;;6.57;;
49392;SDS011;35268;42.642;23.308;2023-07-13T06:58:35;15.18;;;7.15;;
49392;SDS011;35268;42.642;23.308;2023-07-13T07:01:01;19.55;;;7.57;;
49392;SDS011;35268;42.642;23.308;2023-07-13T07:03:26;18.17;;;8.30;;
49392;SDS011;35268;42.642;23.308;2023-07-13T07:05:52;21.13;;;7.43;;
49392;SDS011;35268;42.642;23.308;2023-07-13T07:08:17;31.10;;;7.47;;
49392;SDS011;35268;42.642;23.308;2023-07-13T07:10:42;17.33;;;7.35;;
49392;SDS011;35268;42.642;23.308;2023-07-13T07:13:08;20.42;;;7.72;;
49392;SDS011;35268;42.642;23.308;2023-07-13T07:15:34;25.98;;;7.50;;
49392;SDS011;35268;42.642;23.308;2023-07-13T07:18:00;19.80;;;7.20;;
49392;SDS011;35268;42.642;23.308;2023-07-13T07:20:25;13.68;;;6.60;;
49392;SDS011;35268;42.642;23.308;2023-07-13T07:22:51;12.52;;;6.82;;
49392;SDS011;35268;42.642;23.308;2023-07-13T07:25:17;21.17;;;7.43;;
49392;SDS011;35268;42.642;23.308;2023-07-13T07:27:43;17.80;;;6.22;;
49392;SDS011;35268;42.642;23.308;2023-07-13T07:30:09;12.05;;;5.93;;
49392;SDS011;35268;42.642;23.308;2023-07-13T07:32:35;20.35;;;6.60;;
49392;SDS011;35268;42.642;23.308;2023-07-13T07:35:00;18.00;;;6.35;;
49392;SDS011;35268;42.642;23.308;2023-07-13T07:37:26;14.20;;;6.38;;
49392;SDS011;35268;42.642;23.308;2023-07-13T07:39:51;19.75;;;6.93;;
49392;SDS011;35268;42.642;23.308;2023-07-13T07:42:17;16.80;;;6.40;;
49392;SDS011;35268;42.642;23.308;2023-07-13T07:44:42;22.38;;;6.70;;
49392;SDS011;35268;42.642;23.308;2023-07-13T07:47:08;17.58;;;6.70;;
49392;SDS011;35268;42.642;23.308;2023-07-13T07:49:34;13.23;;;5.90;;
49392;SDS011;35268;42.642;23.308;2023-07-13T07:52:01;17.65;;;6.28;;
49392;SDS011;35268;42.642;23.308;2023-07-13T07:54:26;11.00;;;6.13;;
49392;SDS011;35268;42.642;23.308;2023-07-13T07:56:52;17.92;;;6.90;;
49392;SDS011;35268;42.642;23.308;2023-07-13T07:59:18;16.25;;;6.22;;
49392;SDS011;35268;42.642;23.308;2023-07-13T08:01:44;17.15;;;6.40;;
49392;SDS011;35268;42.642;23.308;2023-07-13T08:04:11;14.77;;;6.15;;
49392;SDS011;35268;42.642;23.308;2023-07-13T08:06:37;16.50;;;7.68;;
49392;SDS011;35268;42.642;23.308;2023-07-13T08:09:03;13.48;;;5.78;;
49392;SDS011;35268;42.642;23.308;2023-07-13T08:11:29;14.35;;;6.15;;
49392;SDS011;35268;42.642;23.308;2023-07-13T08:13:54;16.52;;;6.95;;
49392;SDS011;35268;42.642;23.308;2023-07-13T08:16:20;17.73;;;5.95;;
49392;SDS011;35268;42.642;23.308;2023-07-13T08:18:46;15.45;;;6.32;;
49392;SDS011;35268;42.642;23.308;2023-07-13T08:21:11;15.73;;;6.57;;
49392;SDS011;35268;42.642;23.308;2023-07-13T08:23:37;11.35;;;6.50;;
49392;SDS011;35268;42.642;23.308;2023-07-13T08:26:03;15.10;;;6.72;;
49392;SDS011;35268;42.642;23.308;2023-07-13T08:28:29;11.35;;;6.57;;
49392;SDS011;35268;42.642;23.308;2023-07-13T08:30:59;16.70;;;6.20;;
49392;SDS011;35268;42.642;23.308;2023-07-13T08:33:25;18.67;;;5.78;;
49392;SDS011;35268;42.642;23.308;2023-07-13T08:35:51;19.25;;;6.50;;
49392;SDS011;35268;42.642;23.308;2023-07-13T08:38:17;25.38;;;6.57;;
49392;SDS011;35268;42.642;23.308;2023-07-13T08:40:43;17.55;;;6.32;;
49392;SDS011;35268;42.642;23.308;2023-07-13T08:43:16;21.98;;;6.18;;
49392;SDS011;35268;42.642;23.308;2023-07-13T08:45:45;11.35;;;5.78;;
49392;SDS011;35268;42.642;23.308;2023-07-13T08:48:19;17.48;;;5.95;;
49392;SDS011;35268;42.642;23.308;2023-07-13T08:53:54;16.65;;;6.30;;
49392;SDS011;35268;42.642;23.308;2023-07-13T08:56:23;24.65;;;7.28;;
49392;SDS011;35268;42.642;23.308;2023-07-13T08:58:53;11.50;;;6.03;;
49392;SDS011;35268;42.642;23.308;2023-07-13T09:01:24;19.52;;;6.43;;
49392;SDS011;35268;42.642;23.308;2023-07-13T09:04:05;17.90;;;5.68;;
49392;SDS011;35268;42.642;23.308;2023-07-13T09:12:31;12.88;;;6.07;;
49392;SDS011;35268;42.642;23.308;2023-07-13T09:15:14;24.98;;;6.15;;
49392;SDS011;35268;42.642;23.308;2023-07-13T09:18:49;11.88;;;5.45;;
49392;SDS011;35268;42.642;23.308;2023-07-13T09:21:11;13.73;;;5.80;;
49392;SDS011;35268;42.642;23.308;2023-07-13T09:23:40;12.55;;;5.15;;
49392;SDS011;35268;42.642;23.308;2023-07-13T09:28:57;13.15;;;5.35;;
49392;SDS011;35268;42.642;23.308;2023-07-13T09:31:37;15.98;;;6.22;;
49392;SDS011;35268;42.642;23.308;2023-07-13T09:34:10;16.65;;;5.57;;
49392;SDS011;35268;42.642;23.308;2023-07-13T09:36:37;16.15;;;6.18;;
49392;SDS011;35268;42.642;23.308;2023-07-13T09:44:30;11.43;;;6.05;;
49392;SDS011;35268;42.642;23.308;2023-07-13T09:46:59;17.17;;;5.93;;
49392;SDS011;35268;42.642;23.308;2023-07-13T09:49:25;12.40;;;5.60;;
49392;SDS011;35268;42.642;23.308;2023-07-13T09:51:57;26.55;;;5.85;;
49392;SDS011;35268;42.642;23.308;2023-07-13T09:54:28;13.93;;;6.50;;
49392;SDS011;35268;42.642;23.308;2023-07-13T09:56:57;16.08;;;6.00;;
49392;SDS011;35268;42.642;23.308;2023-07-13T09:59:27;16.38;;;5.15;;
49392;SDS011;35268;42.642;23.308;2023-07-13T10:01:54;13.52;;;6.68;;
49392;SDS011;35268;42.642;23.308;2023-07-13T10:04:27;15.35;;;6.30;;
49392;SDS011;35268;42.642;23.308;2023-07-13T10:07:08;16.15;;;6.00;;
49392;SDS011;35268;42.642;23.308;2023-07-13T10:09:38;12.27;;;6.18;;
49392;SDS011;35268;42.642;23.308;2023-07-13T10:12:04;14.02;;;6.45;;
49392;SDS011;35268;42.642;23.308;2023-07-13T10:14:38;16.80;;;6.10;;
49392;SDS011;35268;42.642;23.308;2023-07-13T10:17:08;13.07;;;6.28;;
49392;SDS011;35268;42.642;23.308;2023-07-13T10:19:39;13.68;;;6.30;;
49392;SDS011;35268;42.642;23.308;2023-07-13T10:22:16;20.45;;;6.07;;
49392;SDS011;35268;42.642;23.308;2023-07-13T10:24:52;12.02;;;5.70;;
49392;SDS011;35268;42.642;23.308;2023-07-13T10:27:23;14.70;;;6.25;;
49392;SDS011;35268;42.642;23.308;2023-07-13T10:32:45;28.02;;;6.07;;
49392;SDS011;35268;42.642;23.308;2023-07-13T10:35:13;11.68;;;5.82;;
49392;SDS011;35268;42.642;23.308;2023-07-13T10:37:49;16.25;;;5.97;;
49392;SDS011;35268;42.642;23.308;2023-07-13T10:40:23;16.85;;;5.93;;
49392;SDS011;35268;42.642;23.308;2023-07-13T10:42:55;15.30;;;4.95;;
49392;SDS011;35268;42.642;23.308;2023-07-13T10:45:23;12.35;;;4.30;;
49392;SDS011;35268;42.642;23.308;2023-07-13T10:47:51;12.88;;;3.58;;
49392;SDS011;35268;42.642;23.308;2023-07-13T10:50:24;8.48;;;3.50;;
49392;SDS011;35268;42.642;23.308;2023-07-13T10:52:53;9.52;;;4.28;;
49392;SDS011;35268;42.642;23.308;2023-07-13T10:55:36;8.48;;;3.35;;
49392;SDS011;35268;42.642;23.308;2023-07-13T10:58:12;8.57;;;3.90;;
49392;SDS011;35268;42.642;23.308;2023-07-13T11:03:33;9.07;;;3.55;;
49392;SDS011;35268;42.642;23.308;2023-07-13T11:06:17;9.45;;;3.75;;
49392;SDS011;35268;42.642;23.308;2023-07-13T11:08:57;8.35;;;4.00;;
49392;SDS011;35268;42.642;23.308;2023-07-13T11:18:54;7.97;;;3.97;;
49392;SDS011;35268;42.642;23.308;2023-07-13T11:24:28;9.05;;;4.20;;
49392;SDS011;35268;42.642;23.308;2023-07-13T11:27:22;12.60;;;4.32;;
49392;SDS011;35268;42.642;23.308;2023-07-13T11:33:45;11.10;;;4.47;;
49392;SDS011;35268;42.642;23.308;2023-07-13T11:41:15;11.80;;;3.75;;
49392;SDS011;35268;42.642;23.308;2023-07-13T11:43:48;12.15;;;4.80;;
49392;SDS011;35268;42.642;23.308;2023-07-13T11:46:25;16.83;;;4.57;;
49392;SDS011;35268;42.642;23.308;2023-07-13T11:48:52;12.13;;;4.13;;
49392;SDS011;35268;42.642;23.308;2023-07-13T11:53:55;10.65;;;4.07;;
49392;SDS011;35268;42.642;23.308;2023-07-13T11:56:23;17.67;;;4.07;;
49392;SDS011;35268;42.642;23.308;2023-07-13T11:58:51;10.85;;;4.18;;
49392;SDS011;35268;42.642;23.308;2023-07-13T12:01:28;13.35;;;3.88;;
49392;SDS011;35268;42.642;23.308;2023-07-13T12:03:57;17.85;;;4.30;;
49392;SDS011;35268;42.642;23.308;2023-07-13T12:09:01;19.65;;;4.80;;
49392;SDS011;35268;42.642;23.308;2023-07-13T12:11:28;12.48;;;4.22;;
49392;SDS011;35268;42.642;23.308;2023-07-13T12:13:54;12.90;;;4.57;;
49392;SDS011;35268;42.642;23.308;2023-07-13T12:16:29;17.95;;;4.85;;
49392;SDS011;35268;42.642;23.308;2023-07-13T12:18:57;14.68;;;5.25;;
49392;SDS011;35268;42.642;23.308;2023-07-13T12:21:31;14.13;;;4.53;;
49392;SDS011;35268;42.642;23.308;2023-07-13T12:23:59;19.55;;;4.63;;
49392;SDS011;35268;42.642;23.308;2023-07-13T12:26:29;10.20;;;5.03;;
49392;SDS011;35268;42.642;23.308;2023-07-13T12:28:56;12.00;;;4.80;;
49392;SDS011;35268;42.642;23.308;2023-07-13T12:31:29;12.70;;;5.20;;
49392;SDS011;35268;42.642;23.308;2023-07-13T12:34:03;15.23;;;5.70;;
49392;SDS011;35268;42.642;23.308;2023-07-13T12:36:33;13.68;;;5.03;;
49392;SDS011;35268;42.642;23.308;2023-07-13T12:39:03;27.05;;;4.95;;
49392;SDS011;35268;42.642;23.308;2023-07-13T12:41:40;14.77;;;5.55;;
49392;SDS011;35268;42.642;23.308;2023-07-13T12:44:11;11.75;;;4.68;;
49392;SDS011;35268;42.642;23.308;2023-07-13T12:46:38;9.95;;;5.10;;
49392;SDS011;35268;42.642;23.308;2023-07-13T12:49:05;15.65;;;5.25;;
49392;SDS011;35268;42.642;23.308;2023-07-13T12:51:32;18.17;;;5.03;;
49392;SDS011;35268;42.642;23.308;2023-07-13T12:54:16;12.45;;;4.80;;
49392;SDS011;35268;42.642;23.308;2023-07-13T12:56:43;18.20;;;4.32;;
49392;SDS011;35268;42.642;23.308;2023-07-13T12:59:12;11.45;;;4.65;;
49392;SDS011;35268;42.642;23.308;2023-07-13T13:01:43;10.63;;;5.00;;
49392;SDS011;35268;42.642;23.308;2023-07-13T13:04:09;10.13;;;4.28;;
49392;SDS011;35268;42.642;23.308;2023-07-13T13:06:37;14.90;;;5.00;;
49392;SDS011;35268;42.642;23.308;2023-07-13T13:09:05;14.88;;;5.20;;
49392;SDS011;35268;42.642;23.308;2023-07-13T13:11:37;20.48;;;4.80;;
49392;SDS011;35268;42.642;23.308;2023-07-13T13:14:02;13.73;;;4.57;;
49392;SDS011;35268;42.642;23.308;2023-07-13T13:16:30;16.95;;;4.45;;
49392;SDS011;35268;42.642;23.308;2023-07-13T13:18:57;13.00;;;5.32;;
49392;SDS011;35268;42.642;23.308;2023-07-13T13:21:25;11.00;;;4.60;;
49392;SDS011;35268;42.642;23.308;2023-07-13T13:23:51;16.25;;;4.10;;
49392;SDS011;35268;42.642;23.308;2023-07-13T13:26:18;11.18;;;3.90;;
49392;SDS011;35268;42.642;23.308;2023-07-13T13:28:45;11.30;;;5.05;;
49392;SDS011;35268;42.642;23.308;2023-07-13T13:31:12;13.32;;;4.57;;
49392;SDS011;35268;42.642;23.308;2023-07-13T13:33:40;12.18;;;4.55;;
49392;SDS011;35268;42.642;23.308;2023-07-13T13:36:21;12.80;;;4.32;;
49392;SDS011;35268;42.642;23.308;2023-07-13T13:38:48;20.40;;;4.95;;
49392;SDS011;35268;42.642;23.308;2023-07-13T13:41:14;18.70;;;5.03;;
49392;SDS011;35268;42.642;23.308;2023-07-13T13:43:41;19.23;;;4.25;;
49392;SDS011;35268;42.642;23.308;2023-07-13T13:46:23;16.75;;;4.10;;
49392;SDS011;35268;42.642;23.308;2023-07-13T13:48:54;15.20;;;4.95;;
49392;SDS011;35268;42.642;23.308;2023-07-13T13:51:22;14.05;;;4.10;;
49392;SDS011;35268;42.642;23.308;2023-07-13T13:53:49;12.68;;;4.30;;
49392;SDS011;35268;42.642;23.308;2023-07-13T13:56:15;21.25;;;5.25;;
49392;SDS011;35268;42.642;23.308;2023-07-13T13:58:42;21.23;;;5.07;;
49392;SDS011;35268;42.642;23.308;2023-07-13T14:01:18;8.70;;;3.63;;
49392;SDS011;35268;42.642;23.308;2023-07-13T14:03:45;16.50;;;4.50;;
49392;SDS011;35268;42.642;23.308;2023-07-13T14:06:13;13.13;;;4.25;;
49392;SDS011;35268;42.642;23.308;2023-07-13T14:08:40;12.35;;;3.85;;
49392;SDS011;35268;42.642;23.308;2023-07-13T14:11:07;14.20;;;4.10;;
49392;SDS011;35268;42.642;23.308;2023-07-13T14:13:40;13.45;;;4.13;;
49392;SDS011;35268;42.642;23.308;2023-07-13T14:16:11;20.33;;;4.90;;
49392;SDS011;35268;42.642;23.308;2023-07-13T14:18:40;14.65;;;4.20;;
49392;SDS011;35268;42.642;23.308;2023-07-13T14:21:12;11.23;;;4.53;;
49392;SDS011;35268;42.642;23.308;2023-07-13T14:23:39;15.52;;;4.95;;
49392;SDS011;35268;42.642;23.308;2023-07-13T14:26:18;13.63;;;4.05;;
49392;SDS011;35268;42.642;23.308;2023-07-13T14:28:49;11.25;;;4.18;;
49392;SDS011;35268;42.642;23.308;2023-07-13T14:31:17;13.65;;;4.07;;
49392;SDS011;35268;42.642;23.308;2023-07-13T14:33:44;10.60;;;4.00;;
49392;SDS011;35268;42.642;23.308;2023-07-13T14:36:26;18.90;;;4.22;;
49392;SDS011;35268;42.642;23.308;2023-07-13T14:38:52;15.45;;;4.22;;
49392;SDS011;35268;42.642;23.308;2023-07-13T14:41:18;12.88;;;3.75;;
49392;SDS011;35268;42.642;23.308;2023-07-13T14:43:45;12.23;;;3.40;;
49392;SDS011;35268;42.642;23.308;2023-07-13T14:46:18;11.57;;;3.90;;
49392;SDS011;35268;42.642;23.308;2023-07-13T14:49:29;9.63;;;3.38;;
49392;SDS011;35268;42.642;23.308;2023-07-13T14:51:55;9.57;;;3.20;;
49392;SDS011;35268;42.642;23.308;2023-07-13T14:54:22;14.65;;;3.55;;
49392;SDS011;35268;42.642;23.308;2023-07-13T14:56:49;13.35;;;4.05;;
49392;SDS011;35268;42.642;23.308;2023-07-13T14:59:15;5.90;;;2.70;;
49392;SDS011;35268;42.642;23.308;2023-07-13T15:01:41;17.15;;;3.60;;
49392;SDS011;35268;42.642;23.308;2023-07-13T15:04:06;11.60;;;3.42;;
49392;SDS011;35268;42.642;23.308;2023-07-13T15:06:50;12.85;;;3.67;;
49392;SDS011;35268;42.642;23.308;2023-07-13T15:09:22;8.73;;;3.45;;
49392;SDS011;35268;42.642;23.308;2023-07-13T15:11:49;12.02;;;3.33;;
49392;SDS011;35268;42.642;23.308;2023-07-13T15:14:14;8.18;;;3.47;;
49392;SDS011;35268;42.642;23.308;2023-07-13T15:16:40;7.60;;;3.60;;
49392;SDS011;35268;42.642;23.308;2023-07-13T15:19:07;9.10;;;3.05;;
49392;SDS011;35268;42.642;23.308;2023-07-13T15:21:35;7.97;;;3.60;;
49392;SDS011;35268;42.642;23.308;2023-07-13T15:24:02;11.75;;;3.45;;
49392;SDS011;35268;42.642;23.308;2023-07-13T15:26:27;10.82;;;3.38;;